Погода Мисан Велана неделю

Сеара, Бразилия

14 - 20 июля
  • 14июля
    Сегодня
    +21°
    +32°
    Облачно с прояснениями
    ВремяПогодаТемператураВлажностьДавлениеВетер, м/сВероятность осадков
    00:00Практически безоблачно+23°C74 %731 мм3.0 м/с5 %
    03:00Ясно и безоблачно+22°C79 %731 мм3.0 м/с2 %
    06:00Облачно с прояснениями+21°C79 %732 мм3.1 м/с16 %
    09:00Практически безоблачно+25°C55 %733 мм4.8 м/с15 %
    12:00Небольшая облачность+29°C36 %731 мм5.0 м/с2 %
    15:00Облачно с прояснениями+31°C30 %730 мм4.4 м/с5 %
    18:00Небольшая облачность+28°C41 %730 мм3.0 м/с5 %
    21:00Практически безоблачно+25°C61 %731 мм2.9 м/с2 %
  • 15июля
    Понедельник
    +20°
    +32°
    Практически безоблачно
    ВремяПогодаТемператураВлажностьДавлениеВетер, м/сВероятность осадков
    00:00Практически безоблачно+23°C76 %732 мм2.8 м/с8 %
    03:00Практически безоблачно+22°C80 %731 мм2.9 м/с10 %
    06:00Небольшая облачность+22°C81 %732 мм2.7 м/с8 %
    09:00Практически безоблачно+25°C57 %733 мм4.5 м/с14 %
    12:00Облачно с прояснениями+30°C33 %732 мм4.6 м/с6 %
    15:00Практически безоблачно+32°C31 %731 мм4.3 м/с5 %
    18:00Ясно и безоблачно+28°C38 %731 мм2.8 м/с5 %
    21:00Ясно и безоблачно+25°C54 %732 мм3.0 м/с5 %
  • 16июля
    Вторник
    +21°
    +32°
    Ясно и безоблачно
    ВремяПогодаТемператураВлажностьДавлениеВетер, м/сВероятность осадков
    00:00Ясно и безоблачно+23°C68 %732 мм2.9 м/с4 %
    03:00Ясно и безоблачно+22°C76 %731 мм2.7 м/с1 %
    06:00Небольшая облачность+21°C82 %732 мм1.8 м/с3 %
    09:00Ясно и безоблачно+25°C54 %734 мм4.7 м/с2 %
    12:00Ясно и безоблачно+30°C35 %732 мм4.8 м/с2 %
    15:00Ясно и безоблачно+31°C30 %730 мм4.8 м/с5 %
    18:00Ясно и безоблачно+28°C37 %731 мм2.2 м/с5 %
    21:00Ясно и безоблачно+25°C58 %733 мм2.2 м/с4 %
  • 17июля
    Среда
    +21°
    +32°
    Небольшая облачность
    ВремяПогодаТемператураВлажностьДавлениеВетер, м/сВероятность осадков
    00:00Ясно и безоблачно+23°C74 %733 мм2.3 м/с9 %
    03:00Практически безоблачно+23°C83 %732 мм2.0 м/с6 %
    06:00Ясно и безоблачно+22°C77 %732 мм1.6 м/с10 %
    09:00Практически безоблачно+26°C55 %734 мм4.6 м/с16 %
    12:00Небольшая облачность+30°C44 %732 мм5.1 м/с14 %
    15:00Небольшая облачность+32°C37 %730 мм4.7 м/с5 %
    18:00Небольшая облачность+28°C45 %731 мм3.2 м/с3 %
    21:00Ясно и безоблачно+25°C63 %732 мм2.4 м/с10 %
  • 18июля
    Четверг
    +21°
    +32°
    Пасмурно, сплошная облачность
    ВремяПогодаТемператураВлажностьДавлениеВетер, м/сВероятность осадков
    00:00Практически безоблачно+23°C75 %731 мм2.3 м/с17 %
    03:00Небольшая облачность+23°C80 %731 мм2.2 м/с7 %
    06:00Небольшая облачность+22°C79 %732 мм1.8 м/с5 %
    09:00Практически безоблачно+26°C56 %733 мм4.2 м/с5 %
    12:00Пасмурно, сплошная облачность+30°C36 %732 мм4.2 м/с10 %
    15:00Пасмурно, сплошная облачность+32°C36 %730 мм3.6 м/с5 %
    18:00Облачно с прояснениями+28°C43 %731 мм2.0 м/с5 %
    21:00Ясно и безоблачно+26°C52 %732 мм1.7 м/с18 %
Мы используем cookies
Соглашаюсь